AirNav   Everest Fuels
 
 1121 users online  

DC01 Washington Post Heliport
Washington, District of Columbia, USA

GOING TO WASHINGTON?


FAA INFORMATION EFFECTIVE 13 AUGUST 2020

Location

FAA Identifier: DC01
Lat/Long: 38-54-15.4020N 077-02-03.9160W
38-54.256700N 077-02.065267W
38.9042783,-77.0344211
(estimated)
Elevation: 175 ft. / 53 m (estimated)
Variation: 09W (1985)
Time zone: UTC -4 (UTC -5 during Standard Time)
Zip code: 20005

Heliport Operations

Heliport use: Private use. Permission required prior to landing
Activation date: 06/1976
Control tower: no
ARTCC: WASHINGTON CENTER
FSS: LEESBURG FLIGHT SERVICE STATION
Attendance: UNATNDD
FOR SVC CALL 202-334-6000.
Wind indicator: yes
Segmented circle: no
Lights: FOR PERI LGTS CALL 202-334-6000.
Beacon: white-yellow (lighted seaplane base)
FOR ROTG BCN CALL 202-334-6000.

Heliport Communications

UNICOM: 123.05
WX ASOS at DCA (3 nm S): 132.65 (703-412-8140)
WX AWOS-3 at CGS (7 nm NE): 121.225 (301-864-5497)
WX AWOS-3 at FME (17 nm NE): 123.925
WX AWOS-3PT at GAI (17 nm N): 128.275 (301-977-2971)

Nearby radio navigation aids

VOR radial/distance  VOR name  Freq  Var
DCAr011/2.7WASHINGTON VOR/DME111.0009W
ADWr317/9.8ANDREWS VORTAC113.1010W
OTTr321/18.0NOTTINGHAM VORTAC113.7010W
AMLr103/20.3ARMEL VOR/DME113.5008W
BALr238/23.6BALTIMORE VORTAC115.1011W
FDKr161/(34.4)FREDERICK VOR109.0008W
EMIr192/35.5WESTMINSTER VORTAC117.9008W
BRVr033/37.2BROOKE VORTAC114.5009W

 
NDB name  Hdg/Dist  Freq  Var  ID
GEORGETOWN119/4.532309WGTN --. - -.
OXONN009/8.333211WDCA -.. -.-. .-
DAVEE023/15.022309WDAA -.. .- .-
ELLICOTT219/25.937111WFND ..-. -. -..

Heliport Services

Runway Information

Helipad H1

Dimensions: 139 x 66 ft. / 42 x 20 m
Surface: asphalt
Runway edge lights: PERI
Latitude: 38-54.256700N
Longitude: 077-02.065267W
Elevation: 175.0 ft.
Traffic pattern: leftleft

Heliport Ownership and Management from official FAA records

Ownership: Privately-owned
Owner: WASHINGTON POST
1301 K ST NW
WASHINGTON, DC 20071
Manager: CARR
1301 K ST NW
WASHINGTON, DC 20071

Additional Remarks

FOR CD CTC POTOMAC APCH AT 866-599-3874.
(CONTACT TITLE) ADDITIONAL CONTACT: CARR PROPERTIES, 1776 1 ST NW, WASHINGTON, DC 20006

Instrument Procedures

There are no published instrument procedures at DC01.

Some nearby airports with instrument procedures:

KDCA - Ronald Reagan Washington National Airport (3 nm S)
KCGS - College Park Airport (7 nm NE)
KADW - Joint Base Andrews (10 nm SE)
KVKX - Potomac Airfield (10 nm S)
W32 - Washington Executive Airport/Hyde Field (10 nm SE)
W00 - Freeway Airport (12 nm E)
KDAA - Davison Army Airfield (13 nm SW)
KFME - Tipton Airport (17 nm NE)
KGAI - Montgomery County Airpark (17 nm N)
2W5 - Maryland Airport (19 nm S)
 
Loc | Ops | Rwys | IFR | FBO | Links
Com | Nav | Svcs | Stats | Notes
Area around DC01 (Washington Post Heliport)
 
Road maps at: MapQuest Bing Google
 
Aerial photo
No photo
 
Sectional chart

 
Airport distance calculator
Flying to Washington Post Heliport? Find the distance to fly.

From to DC01

Sunrise and sunset
Times for 14-Aug-2020
 Local
(UTC-4)
 Zulu
(UTC)
Morning civil twilight05:5409:54
Sunrise06:2310:23
Sunset20:0300:03
Evening civil twilight20:3100:31

Current date and time
Zulu (UTC)  14-Aug-2020 23:01:33
Local (UTC-4)  14-Aug-2020 19:01:33
 
METAR
KDCA 
3nm S 
142252Z 12012KT 10SM FEW020 SCT055 BKN095 BKN250 26/22 A2995 RMK AO2 SLP143 T02560222
KCGS 
7nm NE 
142255Z AUTO 12005KT 10SM SCT110 25/20 A2995 RMK AO1 T02470202
KADW 
9nm SE 
142256Z AUTO 11008KT 10SM -DZ SCT018 23/22 A2995 RMK AO2 RAE50DZB50 SLP147 P0009 T02330224 $
KDAA 
13nm SW 
142256Z AUTO 12004KT 10SM BKN095 25/22 A2995 RMK AO2 SLP144 T02450222 $
KFME 
16nm NE 
142255Z AUTO 13005KT 10SM OVC100 23/22 A2998 RMK AO1
KGAI 
17nm N 
142256Z AUTO 00000KT 10SM OVC085 26/22 A2997 RMK AO2 SLP157 T02610222
KIAD 
19nm W 
142252Z 07006KT 10SM SCT044TCU BKN080 BKN160 26/20 A2995 RMK AO2 RAE05 SLP138 TCU W P0000 T02610200
TAF
KDCA 
3nm S 
142053Z 1421/1524 04007KT P6SM -SHRA VCTS BKN040CB TEMPO 1421/1422 01010G18KT FM150000 05005KT P6SM BKN050 FM151500 06006KT P6SM BKN035 FM152000 07008G15KT P6SM BKN030
KADW 
9nm SE 
142125Z 1421/1523 06008KT 9000 -SHRA VCTS FEW020CB BKN030 BKN120 BKN250 QNH2993INS TEMPO 1421/1501 3200 RA BKN009 BKN010 BKN020 BECMG 1501/1502 06008KT 9999 NSW FEW040 FEW120 SCT250 QNH2997INS BECMG 1508/1509 05010KT 9999 SCT120 BKN250 QNH2996INS BECMG 1519/1520 06010KT 9999 FEW030 SCT100 BKN120 BKN250 QNH2997INS TX28/1517Z TN21/1508Z
KDAA 
13nm SW 
141743Z 1417/1523 VRB06KT 9000 -SHRA BKN025 OVC040 QNH2993INS TEMPO 1417/1501 02020G30KT 8000 -TSRA BKN025CB OVC040 BECMG 1500/1501 VRB06KT 9999 NSW FEW020 BKN025 OVC040 QNH2995INS BECMG 1521/1522 VRB06KT 9000 SHRA SCT030 BKN070 OVC100 QNH2997INS TX29/1419Z TN21/1511Z
KIAD 
19nm W 
142151Z 1422/1524 04007KT P6SM -SHRA VCTS BKN035CB TEMPO 1422/1423 04014G21KT 6SM TSRA BKN040CB FM150000 05004KT P6SM BKN050 FM150800 06003KT 6SM BR BKN035 FM151200 06005KT P6SM BKN035 FM151800 07008G15KT P6SM BKN030
NOTAMs
Click for the latest NOTAMs
NOTAMs are issued by the DoD/FAA and will open in a separate window not controlled by AirNav.

 

 
 

Would you like to see your business listed on this page?

 If your business provides an interesting product or service to pilots, flight crews, aircraft, or users of the Washington Post Heliport, you should consider listing it here.  To start the listing process, click on the button below
 
Add a business
 

Other Pages about Washington Post Heliport

Update a link
 
Copyright © AirNav, LLC. All rights reserved. Privacy Policy  Contact